Time;durP1;ratioP1;P1;durP2;ratioP2;P2;SDS_P1;SDS_P2;PMS_P1;PMS_P2;Temp;Humidity;BMP_temperature;BMP_pressure;BME280_temperature;BME280_humidity;BME280_pressure;Samples;Min_cycle;Max_cycle;Signal;HPM_P1;HPM_P2
2023/12/21 00:01:15;;;;;;;10.70;4.70;;;8.50;99.90;;;;;;5053263;28;20043;-53
2023/12/21 00:03:40;;;;;;;12.37;5.10;;;8.50;99.90;;;;;;5053394;28;20035;-54
2023/12/21 00:06:06;;;;;;;7.80;3.83;;;8.60;99.90;;;;;;5035441;28;20485;-55
2023/12/21 00:08:32;;;;;;;10.03;4.67;;;8.60;99.90;;;;;;5053072;28;20390;-52
2023/12/21 00:10:58;;;;;;;12.90;5.30;;;8.60;99.90;;;;;;5053138;28;20036;-52
2023/12/21 00:13:26;;;;;;;9.20;4.37;;;8.60;99.90;;;;;;5053226;28;20500;-53
2023/12/21 00:15:55;;;;;;;10.87;3.87;;;8.60;99.90;;;;;;5053359;28;20095;-52
2023/12/21 00:18:20;;;;;;;7.65;4.55;;;8.60;99.90;;;;;;5052970;28;20037;-53
2023/12/21 00:20:46;;;;;;;8.80;3.90;;;8.60;99.90;;;;;;5052954;28;20035;-54
2023/12/21 00:23:12;;;;;;;10.43;4.83;;;8.60;99.90;;;;;;5035003;28;20040;-53
2023/12/21 00:25:37;;;;;;;9.27;4.77;;;8.60;99.90;;;;;;5052993;28;20433;-54
2023/12/21 00:28:03;;;;;;;7.70;4.33;;;8.60;99.90;;;;;;5052728;28;20021;-51
2023/12/21 00:30:29;;;;;;;10.97;4.80;;;8.60;99.90;;;;;;5052746;28;20039;-54
2023/12/21 00:32:54;;;;;;;11.20;5.10;;;8.70;99.90;;;;;;5052329;28;20040;-50
2023/12/21 00:35:20;;;;;;;10.77;4.83;;;8.60;99.90;;;;;;5052681;28;20044;-52
2023/12/21 00:37:46;;;;;;;7.90;4.57;;;8.60;99.90;;;;;;5052527;28;20029;-51
2023/12/21 00:40:12;;;;;;;9.00;4.53;;;8.70;99.90;;;;;;5052371;28;20532;-52
2023/12/21 00:42:41;;;;;;;7.17;3.80;;;8.70;99.90;;;;;;5052649;28;20036;-56
2023/12/21 00:45:07;;;;;;;;;;;8.70;99.90;;;;;;5053209;28;20486;-54
2023/12/21 00:47:32;;;;;;;8.27;3.93;;;8.70;99.90;;;;;;5052488;28;19909;-52
2023/12/21 00:49:58;;;;;;;7.57;4.10;;;8.70;99.90;;;;;;5052343;28;20040;-52
2023/12/21 00:52:24;;;;;;;9.73;4.50;;;8.70;99.90;;;;;;5052461;28;20024;-51
2023/12/21 00:54:49;;;;;;;7.20;4.03;;;8.70;99.90;;;;;;5052450;28;20432;-55
2023/12/21 00:57:15;;;;;;;8.83;4.23;;;8.70;99.90;;;;;;5052496;28;20033;-56
2023/12/21 00:59:41;;;;;;;8.63;4.33;;;8.70;99.90;;;;;;5052136;28;20025;-54
2023/12/21 01:02:07;;;;;;;9.27;4.77;;;8.80;99.90;;;;;;5052292;28;20040;-52
2023/12/21 01:04:32;;;;;;;7.17;3.67;;;8.70;99.90;;;;;;5052208;28;20068;-52
2023/12/21 01:06:58;;;;;;;11.23;4.47;;;8.80;99.90;;;;;;5052598;28;20458;-56
2023/12/21 01:09:23;;;;;;;8.17;3.87;;;8.80;99.90;;;;;;5052058;28;20025;-53
2023/12/21 01:11:49;;;;;;;8.57;4.37;;;8.80;99.90;;;;;;5052107;28;20033;-54
2023/12/21 01:14:14;;;;;;;10.13;4.77;;;8.80;99.90;;;;;;5052050;28;20082;-55
2023/12/21 01:16:40;;;;;;;11.53;5.10;;;8.80;99.90;;;;;;5034262;28;20418;-53
2023/12/21 01:19:06;;;;;;;9.20;4.10;;;8.70;99.90;;;;;;5051679;28;20060;-55
2023/12/21 01:21:31;;;;;;;8.00;4.07;;;8.80;99.90;;;;;;5051882;28;20029;-55
2023/12/21 01:23:57;;;;;;;9.70;4.70;;;8.80;99.90;;;;;;5051986;28;20029;-52
2023/12/21 01:26:22;;;;;;;8.70;4.33;;;8.80;99.90;;;;;;5051956;28;20036;-52
2023/12/21 01:28:48;;;;;;;7.40;4.20;;;8.80;99.90;;;;;;5051655;28;20128;-55
2023/12/21 01:31:13;;;;;;;9.33;5.27;;;8.80;99.90;;;;;;5051671;28;20390;-50
2023/12/21 01:33:39;;;;;;;8.50;4.40;;;8.80;99.90;;;;;;5051758;28;20029;-53
2023/12/21 01:36:07;;;;;;;8.87;4.87;;;8.80;99.90;;;;;;5051741;28;20032;-52
2023/12/21 01:38:33;;;;;;;11.13;4.83;;;8.80;99.90;;;;;;5051597;28;20116;-55
2023/12/21 01:40:59;;;;;;;7.87;4.37;;;8.90;99.90;;;;;;5051535;28;20047;-52
2023/12/21 01:43:25;;;;;;;10.40;4.37;;;8.90;99.90;;;;;;5051748;28;20029;-53
2023/12/21 01:45:52;;;;;;;11.50;4.90;;;8.90;99.90;;;;;;5051036;28;20076;-51
2023/12/21 01:48:18;;;;;;;11.47;4.63;;;8.80;99.90;;;;;;5051466;28;20025;-53
2023/12/21 01:50:45;;;;;;;7.97;4.50;;;8.90;99.90;;;;;;5051468;28;20087;-54
2023/12/21 01:53:13;;;;;;;10.40;5.30;;;8.90;99.90;;;;;;5051609;28;20032;-54
2023/12/21 01:55:39;;;;;;;6.77;3.53;;;8.90;99.90;;;;;;5051678;28;20029;-52
2023/12/21 01:58:06;;;;;;;10.30;5.07;;;8.90;99.90;;;;;;5051444;28;20029;-55
2023/12/21 02:00:32;;;;;;;9.53;4.73;;;8.90;99.90;;;;;;5051392;28;20094;-55
2023/12/21 02:02:57;;;;;;;10.93;4.97;;;8.90;99.90;;;;;;5051487;28;20021;-55
2023/12/21 02:05:23;;;;;;;8.73;4.77;;;8.90;99.90;;;;;;5051612;28;20433;-56
2023/12/21 02:07:49;;;;;;;11.10;5.33;;;8.90;99.90;;;;;;5051380;28;20115;-56
2023/12/21 02:10:14;;;;;;;9.90;4.73;;;8.80;99.90;;;;;;5051433;28;20529;-51
2023/12/21 02:12:40;;;;;;;10.57;4.93;;;8.80;99.90;;;;;;5051432;28;20107;-54
2023/12/21 02:15:07;;;;;;;10.13;5.67;;;8.90;99.90;;;;;;5033787;28;20390;-53
2023/12/21 02:17:34;;;;;;;11.27;5.60;;;8.90;99.90;;;;;;5051124;28;20033;-56
2023/12/21 02:20:00;;;;;;;11.67;5.67;;;8.90;99.90;;;;;;5051267;28;20127;-52
2023/12/21 02:22:28;;;;;;;9.80;4.80;;;8.90;99.90;;;;;;5051317;28;20147;-54
2023/12/21 02:24:55;;;;;;;8.70;4.83;;;8.90;99.90;;;;;;5051397;28;20398;-52
2023/12/21 02:27:21;;;;;;;7.63;3.63;;;8.90;99.90;;;;;;5051273;28;20032;-55
2023/12/21 02:29:46;;;;;;;9.73;4.87;;;8.90;99.90;;;;;;5051279;28;20025;-54
2023/12/21 02:32:12;;;;;;;11.57;4.73;;;8.90;99.90;;;;;;5051101;28;20078;-51
2023/12/21 02:34:37;;;;;;;11.07;5.20;;;8.90;99.90;;;;;;5051283;28;20029;-54
2023/12/21 02:37:03;;;;;;;9.97;4.57;;;8.90;99.90;;;;;;5051132;28;20044;-52
2023/12/21 02:39:29;;;;;;;8.13;4.27;;;8.90;99.90;;;;;;5051024;28;20025;-54
2023/12/21 02:41:55;;;;;;;7.27;4.30;;;8.90;99.90;;;;;;5051039;28;20447;-53
2023/12/21 02:44:20;;;;;;;8.43;4.30;;;8.90;99.90;;;;;;5051211;28;20051;-52
2023/12/21 02:46:46;;;;;;;10.97;4.30;;;8.90;99.90;;;;;;5051072;28;20028;-53
2023/12/21 02:49:12;;;;;;;7.73;4.30;;;8.90;99.90;;;;;;5050942;28;20653;-53
2023/12/21 02:51:37;;;;;;;6.20;3.43;;;8.90;99.90;;;;;;5051108;28;20029;-55
2023/12/21 02:54:03;;;;;;;7.00;3.87;;;8.90;99.90;;;;;;5051142;28;20032;-52
2023/12/21 02:56:28;;;;;;;10.63;4.07;;;8.90;99.90;;;;;;5052307;28;20025;-51
2023/12/21 02:58:54;;;;;;;10.17;4.20;;;8.90;99.90;;;;;;5054431;28;20444;-53
2023/12/21 03:01:20;;;;;;;8.73;4.10;;;8.90;99.90;;;;;;5036514;28;20041;-55
2023/12/21 03:03:45;;;;;;;7.30;3.63;;;8.90;99.90;;;;;;5054570;28;20033;-55
2023/12/21 03:06:11;;;;;;;7.67;3.37;;;9.00;99.90;;;;;;5054567;28;20033;-55
2023/12/21 03:08:36;;;;;;;9.13;3.50;;;8.90;99.90;;;;;;5054278;28;20470;-54
2023/12/21 03:11:02;;;;;;;7.90;4.00;;;8.90;99.90;;;;;;5036438;28;20032;-55
2023/12/21 03:13:28;;;;;;;6.70;3.17;;;8.90;99.90;;;;;;5054326;28;20033;-52
2023/12/21 03:15:53;;;;;;;7.27;3.17;;;8.90;99.90;;;;;;5054294;28;20052;-53
2023/12/21 03:18:19;;;;;;;7.43;3.50;;;8.90;99.90;;;;;;5036368;28;20493;-52
2023/12/21 03:20:45;;;;;;;7.10;2.80;;;8.90;99.90;;;;;;5054015;28;20033;-52
2023/12/21 03:23:10;;;;;;;6.03;3.33;;;8.80;99.90;;;;;;5054156;28;20025;-52
2023/12/21 03:25:36;;;;;;;5.53;3.17;;;8.80;99.90;;;;;;5054146;28;20025;-51
2023/12/21 03:28:03;;;;;;;5.23;2.80;;;8.90;99.90;;;;;;5053953;28;20100;-55
2023/12/21 03:30:29;;;;;;;5.60;3.00;;;8.90;99.90;;;;;;5053848;28;20447;-56
2023/12/21 03:32:55;;;;;;;5.73;2.77;;;8.90;99.90;;;;;;5054058;28;20070;-54
2023/12/21 03:35:20;;;;;;;7.10;3.10;;;8.90;99.90;;;;;;5054066;28;20029;-56
2023/12/21 03:37:46;;;;;;;8.60;3.20;;;8.90;99.90;;;;;;5035993;28;20117;-51
2023/12/21 03:40:12;;;;;;;7.13;2.90;;;8.90;99.90;;;;;;5053577;28;20084;-55
2023/12/21 03:42:38;;;;;;;6.03;3.00;;;8.90;99.90;;;;;;5053788;28;20040;-54
2023/12/21 03:45:04;;;;;;;4.97;2.67;;;8.90;99.90;;;;;;5053777;28;20041;-52
2023/12/21 03:47:30;;;;;;;5.33;2.53;;;8.90;99.90;;;;;;5053656;28;20224;-56
2023/12/21 03:49:55;;;;;;;6.00;2.50;;;8.90;99.90;;;;;;5053608;28;20033;-55
2023/12/21 03:52:21;;;;;;;6.47;2.47;;;8.90;99.90;;;;;;5053516;28;20441;-51
2023/12/21 03:54:47;;;;;;;4.57;2.43;;;8.90;99.90;;;;;;5053571;28;20029;-51
2023/12/21 03:57:13;;;;;;;6.60;2.50;;;8.90;99.90;;;;;;5053424;28;20071;-55
2023/12/21 03:59:40;;;;;;;6.50;2.13;;;8.90;99.90;;;;;;5053754;28;20133;-52
2023/12/21 04:02:06;;;;;;;5.20;2.60;;;8.90;99.90;;;;;;5053373;28;20029;-56
2023/12/21 04:04:32;;;;;;;5.57;2.77;;;8.90;99.90;;;;;;5053380;28;20136;-53
2023/12/21 04:06:58;;;;;;;4.70;2.37;;;8.90;99.90;;;;;;5053270;28;20036;-55
2023/12/21 04:09:25;;;;;;;5.57;2.30;;;8.90;99.90;;;;;;5052577;28;20186;-54
2023/12/21 04:11:50;;;;;;;6.07;2.50;;;8.90;99.90;;;;;;5053295;28;20068;-52
2023/12/21 04:14:16;;;;;;;4.97;2.17;;;8.90;99.90;;;;;;5053219;28;20474;-54
2023/12/21 04:16:41;;;;;;;4.63;2.33;;;8.90;99.90;;;;;;5053232;28;20032;-51
2023/12/21 04:19:07;;;;;;;4.67;1.97;;;8.90;99.90;;;;;;5052921;28;20421;-56
2023/12/21 04:21:33;;;;;;;6.67;2.07;;;8.90;99.90;;;;;;5052939;28;20120;-53
2023/12/21 04:23:59;;;;;;;3.60;2.13;;;8.90;99.90;;;;;;5052986;28;20124;-52
2023/12/21 04:26:25;;;;;;;4.37;2.40;;;8.90;99.90;;;;;;5053447;28;20053;-54
2023/12/21 04:28:51;;;;;;;3.87;2.00;;;8.90;99.90;;;;;;5052554;28;20208;-54
2023/12/21 04:31:18;;;;;;;4.67;2.63;;;8.90;99.90;;;;;;5052901;28;20381;-54
2023/12/21 04:33:45;;;;;;;4.47;2.30;;;9.00;99.90;;;;;;5052859;28;20072;-49
2023/12/21 04:36:10;;;;;;;4.37;2.33;;;8.90;99.90;;;;;;5052899;28;20040;-52
2023/12/21 04:38:37;;;;;;;4.20;1.83;;;9.00;99.90;;;;;;5052533;28;20025;-52
2023/12/21 04:41:03;;;;;;;4.27;1.97;;;8.90;99.90;;;;;;5052541;28;20029;-53
2023/12/21 04:43:29;;;;;;;5.90;2.50;;;8.90;99.90;;;;;;5052564;28;20537;-56
2023/12/21 04:45:54;;;;;;;5.03;2.07;;;9.00;99.90;;;;;;5053037;28;20462;-52
2023/12/21 04:48:20;;;;;;;4.57;2.07;;;9.00;99.90;;;;;;5034466;28;20033;-55
2023/12/21 04:50:46;;;;;;;5.13;2.37;;;8.90;99.90;;;;;;5052439;28;20033;-54
2023/12/21 04:53:11;;;;;;;4.97;2.23;;;8.90;99.90;;;;;;5052537;28;20413;-51
2023/12/21 04:55:37;;;;;;;3.60;2.37;;;8.90;99.90;;;;;;5034707;28;20033;-53
2023/12/21 04:58:03;;;;;;;2.77;1.47;;;8.90;99.90;;;;;;5052123;28;20104;-53
2023/12/21 05:00:29;;;;;;;3.47;1.70;;;8.90;99.90;;;;;;5052347;28;20037;-52
2023/12/21 05:02:55;;;;;;;6.40;2.63;;;8.90;99.90;;;;;;5052340;28;20123;-55
2023/12/21 05:05:21;;;;;;;5.90;2.07;;;8.90;99.90;;;;;;5052416;28;20121;-53
2023/12/21 05:07:47;;;;;;;5.60;2.37;;;8.90;99.90;;;;;;5052124;28;20132;-53
2023/12/21 05:10:13;;;;;;;3.00;1.47;;;8.90;99.90;;;;;;5052175;28;20086;-53
2023/12/21 05:12:39;;;;;;;5.50;1.80;;;8.90;99.90;;;;;;5051880;28;20119;-55
2023/12/21 05:15:05;;;;;;;5.60;1.87;;;8.90;99.90;;;;;;5052193;28;20062;-54
2023/12/21 05:17:30;;;;;;;4.47;1.97;;;8.90;99.90;;;;;;5052022;28;20523;-53
2023/12/21 05:19:56;;;;;;;5.53;2.20;;;8.90;99.90;;;;;;5051020;28;20068;-52
2023/12/21 05:22:22;;;;;;;4.90;2.40;;;8.90;99.90;;;;;;5052001;28;20060;-53
2023/12/21 05:24:48;;;;;;;7.33;2.10;;;8.90;99.90;;;;;;5051988;28;20040;-53
2023/12/21 05:27:13;;;;;;;8.47;2.00;;;8.90;99.90;;;;;;5051730;28;20033;-54
2023/12/21 05:29:41;;;;;;;6.57;2.47;;;8.90;99.90;;;;;;5052115;28;20035;-54
2023/12/21 05:32:07;;;;;;;10.27;3.60;;;8.90;99.90;;;;;;5051893;28;20043;-53
2023/12/21 05:34:33;;;;;;;4.80;2.40;;;9.00;99.90;;;;;;5051784;28;20029;-51
2023/12/21 05:36:59;;;;;;;5.43;2.50;;;9.00;99.90;;;;;;5051640;28;20371;-52
2023/12/21 05:39:25;;;;;;;5.47;2.50;;;8.90;99.90;;;;;;5051693;28;20419;-55
2023/12/21 05:41:51;;;;;;;6.20;2.40;;;9.00;99.90;;;;;;5033765;28;20446;-55
2023/12/21 05:44:17;;;;;;;6.67;2.63;;;9.00;99.90;;;;;;5051803;28;20056;-55
2023/12/21 05:46:42;;;;;;;8.03;3.27;;;9.00;99.90;;;;;;5051784;28;20032;-55
2023/12/21 05:49:09;;;;;;;7.37;2.57;;;9.00;99.90;;;;;;5051490;28;20559;-51
2023/12/21 05:51:34;;;;;;;7.80;2.97;;;9.00;99.90;;;;;;5051581;28;20029;-52
2023/12/21 05:54:00;;;;;;;9.50;3.00;;;9.10;99.90;;;;;;5051741;28;20059;-52
2023/12/21 05:56:26;;;;;;;7.60;2.83;;;9.10;99.90;;;;;;5051536;28;20029;-52
2023/12/21 05:58:52;;;;;;;5.73;3.10;;;9.10;99.90;;;;;;5051405;28;20104;-55
2023/12/21 06:01:17;;;;;;;7.90;3.43;;;9.10;99.90;;;;;;5051536;28;20466;-55
2023/12/21 06:03:43;;;;;;;8.07;3.03;;;9.10;99.90;;;;;;5051556;28;20398;-55
2023/12/21 06:06:08;;;;;;;6.30;2.73;;;9.10;99.90;;;;;;5051590;28;20116;-54
2023/12/21 06:08:34;;;;;;;7.70;3.00;;;9.10;99.90;;;;;;5051260;28;20026;-56
2023/12/21 06:11:00;;;;;;;7.83;3.20;;;9.20;99.90;;;;;;5051780;28;20120;-55
2023/12/21 06:13:28;;;;;;;11.10;2.73;;;9.10;99.90;;;;;;5051507;28;20029;-52
2023/12/21 06:15:53;;;;;;;6.30;2.47;;;9.10;99.90;;;;;;5051512;28;20481;-52
2023/12/21 06:18:19;;;;;;;9.13;3.03;;;9.10;99.90;;;;;;5033524;28;20047;-52
2023/12/21 06:20:44;;;;;;;6.30;2.83;;;9.10;99.90;;;;;;5051477;28;20037;-51
2023/12/21 06:23:10;;;;;;;6.77;3.07;;;9.10;99.90;;;;;;5051397;28;20104;-56
2023/12/21 06:25:36;;;;;;;10.87;3.53;;;9.10;99.90;;;;;;5051188;28;20025;-53
2023/12/21 06:28:01;;;;;;;8.63;3.47;;;9.10;99.90;;;;;;5051160;28;20017;-55
2023/12/21 06:30:27;;;;;;;8.33;2.97;;;9.20;99.90;;;;;;5051274;28;20037;-51
2023/12/21 06:32:53;;;;;;;9.90;3.30;;;9.20;99.90;;;;;;5054774;28;20103;-57
2023/12/21 06:35:19;;;;;;;10.97;3.73;;;9.20;99.90;;;;;;5055211;28;20029;-55
2023/12/21 06:37:45;;;;;;;11.70;3.53;;;9.20;99.90;;;;;;5054920;28;20495;-55
2023/12/21 06:40:11;;;;;;;9.40;3.53;;;9.20;99.90;;;;;;5054630;28;20033;-53
2023/12/21 06:42:37;;;;;;;10.60;3.27;;;9.30;99.90;;;;;;5036965;28;20029;-55
2023/12/21 06:45:03;;;;;;;7.83;3.37;;;9.30;99.90;;;;;;5054995;28;20466;-51
2023/12/21 06:47:28;;;;;;;12.73;3.70;;;9.30;99.90;;;;;;5055106;28;20029;-55
2023/12/21 06:49:54;;;;;;;10.73;4.27;;;9.30;99.90;;;;;;5054824;28;20089;-55
2023/12/21 06:52:21;;;;;;;17.60;4.50;;;9.30;99.90;;;;;;5054708;28;20044;-57
2023/12/21 06:54:47;;;;;;;10.77;4.10;;;9.30;99.90;;;;;;5054776;28;20056;-52
2023/12/21 06:57:13;;;;;;;11.07;3.27;;;9.30;99.90;;;;;;5054595;28;20044;-52
2023/12/21 06:59:38;;;;;;;7.43;3.33;;;9.30;99.90;;;;;;5054450;28;20037;-55
2023/12/21 07:02:04;;;;;;;13.90;3.13;;;9.30;99.90;;;;;;5054595;28;20032;-54
2023/12/21 07:04:30;;;;;;;9.57;3.33;;;9.40;99.90;;;;;;5054585;28;20039;-55
2023/12/21 07:06:57;;;;;;;6.90;3.50;;;9.40;99.90;;;;;;5054415;28;20025;-52
2023/12/21 07:09:23;;;;;;;9.83;3.53;;;9.40;99.90;;;;;;5054319;28;20101;-55
2023/12/21 07:11:48;;;;;;;10.57;3.20;;;9.30;99.90;;;;;;5054405;28;20494;-56
2023/12/21 07:14:14;;;;;;;7.40;2.80;;;9.40;99.90;;;;;;5054436;28;20112;-53
2023/12/21 07:16:40;;;;;;;8.47;2.90;;;9.40;99.90;;;;;;5054512;28;20478;-53
2023/12/21 07:19:06;;;;;;;13.33;3.40;;;9.40;99.90;;;;;;5054097;28;20056;-51
2023/12/21 07:21:32;;;;;;;6.10;3.00;;;9.40;99.90;;;;;;5054185;28;20035;-51
2023/12/21 07:23:57;;;;;;;10.23;3.33;;;9.40;99.90;;;;;;5054136;28;20131;-55
2023/12/21 07:26:23;;;;;;;5.23;3.03;;;9.40;99.90;;;;;;5054201;28;20600;-53
2023/12/21 07:28:49;;;;;;;10.87;3.10;;;9.40;99.90;;;;;;5053886;28;20363;-53
2023/12/21 07:31:15;;;;;;;7.47;3.07;;;9.40;99.90;;;;;;5054032;28;20033;-55
2023/12/21 07:33:42;;;;;;;7.80;3.47;;;9.40;99.90;;;;;;5053974;28;20371;-54
2023/12/21 07:36:07;;;;;;;13.63;3.63;;;9.30;99.90;;;;;;5054116;28;20033;-52
2023/12/21 07:38:34;;;;;;;7.73;3.30;;;9.30;99.90;;;;;;5053637;28;20029;-56
2023/12/21 07:41:00;;;;;;;7.80;2.50;;;9.30;99.90;;;;;;5053601;28;20116;-53
2023/12/21 07:43:25;;;;;;;8.80;3.00;;;9.30;99.90;;;;;;5052814;28;20174;-54
2023/12/21 07:45:52;;;;;;;8.40;2.83;;;9.30;99.90;;;;;;5053728;28;20397;-54
2023/12/21 07:48:18;;;;;;;8.27;2.87;;;9.30;99.90;;;;;;5053625;28;20027;-56
2023/12/21 07:50:43;;;;;;;8.20;3.83;;;9.30;99.90;;;;;;5053489;28;20104;-54
2023/12/21 07:53:09;;;;;;;5.23;2.60;;;9.30;99.90;;;;;;5053556;28;20036;-56
2023/12/21 07:55:34;;;;;;;9.23;3.03;;;9.30;99.90;;;;;;5053658;28;20317;-51
2023/12/21 07:58:00;;;;;;;8.10;3.20;;;9.30;99.90;;;;;;5053535;28;20029;-53
2023/12/21 08:00:26;;;;;;;7.57;3.13;;;9.40;99.90;;;;;;5053528;28;20040;-55
2023/12/21 08:02:53;;;;;;;7.43;3.40;;;9.30;99.90;;;;;;5053436;28;20024;-51
2023/12/21 08:05:22;;;;;;;8.60;3.40;;;9.40;99.90;;;;;;5053336;28;20025;-55
2023/12/21 08:07:49;;;;;;;8.37;2.83;;;9.40;99.90;;;;;;5053081;28;20037;-51
2023/12/21 08:10:15;;;;;;;8.77;3.60;;;9.30;99.90;;;;;;5053260;28;20033;-53
2023/12/21 08:12:40;;;;;;;11.60;3.53;;;9.40;99.90;;;;;;5053181;28;20036;-55
2023/12/21 08:15:09;;;;;;;14.50;3.43;;;9.30;99.90;;;;;;5053289;28;20155;-51
2023/12/21 08:17:36;;;;;;;14.57;3.63;;;9.40;99.90;;;;;;5053107;28;20041;-54
2023/12/21 08:20:04;;;;;;;13.40;3.43;;;9.40;99.90;;;;;;5053024;28;20075;-55
2023/12/21 08:22:30;;;;;;;7.60;3.30;;;9.40;99.90;;;;;;5053337;28;20064;-54
2023/12/21 08:24:57;;;;;;;9.67;2.80;;;9.40;99.90;;;;;;5053015;28;20122;-53
2023/12/21 08:27:23;;;;;;;7.27;3.07;;;9.40;99.90;;;;;;5052886;28;20040;-55
2023/12/21 08:29:49;;;;;;;8.87;3.10;;;9.40;99.90;;;;;;5052855;28;20032;-53
2023/12/21 08:32:15;;;;;;;8.00;3.00;;;9.40;99.90;;;;;;5053122;28;20389;-56
2023/12/21 08:34:42;;;;;;;12.00;3.93;;;9.40;99.90;;;;;;5035027;28;20025;-53
2023/12/21 08:37:08;;;;;;;12.17;3.03;;;9.40;99.90;;;;;;5052806;28;20029;-53
2023/12/21 08:39:34;;;;;;;9.40;2.97;;;9.40;99.90;;;;;;5052569;28;20062;-56
2023/12/21 08:42:01;;;;;;;5.40;2.40;;;9.40;99.90;;;;;;5068199;22;20058;-53
2023/12/21 08:44:27;;;;;;;7.93;2.70;;;9.40;99.90;;;;;;5052752;28;20367;-54
2023/12/21 08:46:53;;;;;;;5.83;2.57;;;9.40;99.90;;;;;;5051288;28;20033;-52
2023/12/21 08:49:19;;;;;;;12.03;2.43;;;9.40;99.90;;;;;;5052428;28;20036;-52
2023/12/21 08:51:44;;;;;;;6.93;2.30;;;9.40;99.90;;;;;;5052407;28;20035;-52
2023/12/21 08:54:10;;;;;;;4.17;2.33;;;9.40;99.90;;;;;;5052349;28;20032;-55
2023/12/21 08:56:44;;;;;;;8.13;2.40;;;9.40;99.90;;;;;;5052549;28;20041;-54
2023/12/21 08:59:09;;;;;;;6.83;2.10;;;9.40;99.90;;;;;;5052146;28;20029;-55
2023/12/21 09:01:35;;;;;;;8.50;1.67;;;9.40;99.90;;;;;;5034535;28;20060;-53
2023/12/21 09:04:01;;;;;;;6.40;1.90;;;9.40;99.90;;;;;;5052127;28;20040;-56
2023/12/21 09:06:28;;;;;;;3.73;1.70;;;9.50;99.90;;;;;;5052328;28;20478;-56
2023/12/21 09:08:53;;;;;;;5.63;1.83;;;9.50;99.90;;;;;;5052086;28;20128;-56
2023/12/21 09:11:19;;;;;;;4.47;1.90;;;9.50;99.90;;;;;;5052188;28;20047;-55
2023/12/21 09:13:45;;;;;;;4.70;1.60;;;9.50;99.90;;;;;;5052177;28;20482;-52
2023/12/21 09:16:10;;;;;;;2.37;1.30;;;9.50;99.90;;;;;;5052068;28;20035;-55
2023/12/21 09:18:36;;;;;;;4.37;1.40;;;9.50;99.90;;;;;;5052336;28;20449;-56
2023/12/21 09:21:03;;;;;;;5.80;2.00;;;9.50;99.90;;;;;;5051903;28;20389;-55
2023/12/21 09:23:29;;;;;;;4.27;1.27;;;9.50;99.90;;;;;;5052069;28;20508;-53
2023/12/21 09:25:55;;;;;;;2.73;1.20;;;9.50;99.90;;;;;;5052298;28;20028;-51
2023/12/21 09:28:22;;;;;;;6.23;1.30;;;9.50;99.90;;;;;;5051767;28;20031;-55
2023/12/21 09:30:47;;;;;;;3.53;1.30;;;9.50;99.90;;;;;;5051755;28;20036;-52
2023/12/21 09:33:13;;;;;;;5.70;1.53;;;9.50;99.90;;;;;;5052405;28;20390;-54
2023/12/21 09:35:39;;;;;;;4.60;1.20;;;9.50;99.90;;;;;;5051879;28;20559;-56
2023/12/21 09:38:04;;;;;;;4.03;1.40;;;9.60;99.90;;;;;;5051580;28;20477;-51
2023/12/21 09:40:31;;;;;;;3.10;1.00;;;9.60;99.90;;;;;;5051544;28;20036;-55
2023/12/21 09:43:02;;;;;;;2.40;1.10;;;9.60;99.90;;;;;;5051888;28;20086;-56
2023/12/21 09:45:29;;;;;;;1.90;1.00;;;9.60;99.90;;;;;;5051726;28;20033;-55
2023/12/21 09:47:55;;;;;;;2.10;1.10;;;9.60;99.90;;;;;;5051939;28;20390;-55
2023/12/21 09:50:21;;;;;;;4.23;1.10;;;9.60;99.90;;;;;;5051721;28;20051;-54
2023/12/21 09:52:48;;;;;;;2.47;0.93;;;9.60;99.90;;;;;;5051787;28;20029;-56
2023/12/21 09:55:15;;;;;;;3.67;1.57;;;9.60;99.90;;;;;;5051784;28;20174;-55
2023/12/21 09:57:41;;;;;;;3.93;1.13;;;9.60;99.90;;;;;;5051604;28;20041;-56
2023/12/21 10:00:07;;;;;;;1.90;0.80;;;9.60;99.90;;;;;;5051557;28;20033;-55
2023/12/21 10:02:38;;;;;;;4.57;0.90;;;9.70;99.90;;;;;;5051977;28;20167;-54
2023/12/21 10:05:05;;;;;;;1.83;0.50;;;9.60;99.90;;;;;;5049625;28;20056;-56
2023/12/21 10:07:30;;;;;;;2.73;0.83;;;9.60;99.90;;;;;;5053230;28;20393;-55
2023/12/21 10:09:57;;;;;;;1.83;0.90;;;9.70;99.90;;;;;;5055627;28;20036;-56
2023/12/21 10:12:23;;;;;;;1.50;0.70;;;9.70;99.90;;;;;;5055906;28;20043;-56
2023/12/21 10:14:58;;;;;;;2.27;0.60;;;9.70;99.90;;;;;;5055746;28;20482;-56
2023/12/21 10:17:25;;;;;;;1.50;0.73;;;9.70;99.90;;;;;;5055270;28;20044;-56
2023/12/21 10:19:51;;;;;;;2.47;0.90;;;9.70;99.90;;;;;;5037459;28;20043;-55
2023/12/21 10:22:18;;;;;;;0.97;0.60;;;9.70;99.90;;;;;;5055600;28;20027;-55
2023/12/21 10:24:46;;;;;;;0.80;0.60;;;9.70;99.90;;;;;;5055645;28;20083;-55
2023/12/21 10:27:13;;;;;;;4.13;0.90;;;9.80;99.90;;;;;;5055152;28;20037;-52
2023/12/21 10:29:41;;;;;;;1.37;0.50;;;9.80;99.90;;;;;;5055440;28;20052;-51
2023/12/21 10:32:08;;;;;;;1.63;0.87;;;9.80;99.90;;;;;;5055202;28;20034;-53
2023/12/21 10:34:36;;;;;;;1.90;0.97;;;9.80;99.90;;;;;;5055447;28;20543;-55
2023/12/21 10:37:02;;;;;;;2.03;0.67;;;9.80;99.90;;;;;;5037240;28;20054;-53
2023/12/21 10:39:30;;;;;;;2.97;0.93;;;9.80;99.90;;;;;;5055252;28;20029;-53
2023/12/21 10:41:56;;;;;;;2.77;1.00;;;9.90;99.90;;;;;;5055007;28;20517;-55
2023/12/21 10:44:22;;;;;;;3.17;1.10;;;9.90;99.90;;;;;;5055108;28;20029;-52
2023/12/21 10:46:48;;;;;;;4.23;1.20;;;9.90;99.90;;;;;;5054509;28;20025;-50
2023/12/21 10:49:14;;;;;;;3.10;1.30;;;9.80;99.90;;;;;;5054356;28;20417;-55
2023/12/21 10:51:43;;;;;;;4.13;1.57;;;9.90;99.90;;;;;;5055133;28;20466;-55
2023/12/21 10:54:10;;;;;;;2.90;1.50;;;9.90;99.90;;;;;;5055070;28;20394;-52
2023/12/21 10:56:42;;;;;;;2.53;1.70;;;9.90;99.90;;;;;;5054708;28;20037;-55
2023/12/21 10:59:10;;;;;;;5.53;1.80;;;10.00;99.90;;;;;;5036825;28;20036;-56
2023/12/21 11:01:37;;;;;;;6.33;1.90;;;10.00;99.90;;;;;;5054615;28;20407;-55
2023/12/21 11:04:03;;;;;;;3.37;2.00;;;10.00;99.90;;;;;;5054349;28;20040;-52
2023/12/21 11:06:31;;;;;;;6.70;2.67;;;10.00;99.90;;;;;;5050226;28;20421;-54
2023/12/21 11:08:57;;;;;;;6.43;2.40;;;10.10;99.90;;;;;;5053242;28;20478;-55
2023/12/21 11:11:25;;;;;;;3.30;2.20;;;10.10;99.90;;;;;;5031172;28;20030;-54
2023/12/21 11:13:57;;;;;;;4.60;2.10;;;10.10;99.90;;;;;;5015965;28;20037;-56
2023/12/21 11:16:41;;;;;;;5.00;2.40;;;10.10;99.90;;;;;;5034192;28;20023;-51
2023/12/21 11:19:09;;;;;;;6.20;2.37;;;10.10;99.90;;;;;;5046450;28;20128;-56
2023/12/21 11:21:36;;;;;;;3.58;1.95;;;10.00;99.90;;;;;;5054175;28;20391;-52
2023/12/21 11:24:02;;;;;;;3.73;1.90;;;10.00;99.90;;;;;;5053956;28;20120;-53
2023/12/21 11:26:28;;;;;;;3.83;1.90;;;10.10;99.90;;;;;;5053902;28;20029;-55
2023/12/21 11:29:04;;;;;;;6.87;2.40;;;10.10;99.90;;;;;;5053607;28;20052;-56
2023/12/21 11:31:38;;;;;;;6.23;2.30;;;10.20;99.90;;;;;;5053908;28;20053;-56
2023/12/21 11:34:15;;;;;;;5.30;1.60;;;10.20;99.90;;;;;;5053767;28;20064;-54
2023/12/21 11:36:42;;;;;;;4.53;1.60;;;10.30;99.90;;;;;;5053762;28;20087;-53
2023/12/21 11:39:14;;;;;;;2.63;1.40;;;10.40;99.90;;;;;;5053405;28;20037;-55
2023/12/21 11:42:00;;;;;;;4.40;1.27;;;10.40;99.90;;;;;;5053403;28;20029;-54
2023/12/21 11:44:36;;;;;;;3.63;1.20;;;10.50;99.90;;;;;;5053284;28;20025;-55
2023/12/21 11:47:06;;;;;;;3.60;1.30;;;10.60;99.90;;;;;;5053238;28;20075;-55
2023/12/21 11:49:32;;;;;;;1.57;0.73;;;10.60;99.90;;;;;;5053395;28;20429;-53
2023/12/21 11:51:59;;;;;;;2.13;1.03;;;10.60;99.90;;;;;;5053377;28;20028;-54
2023/12/21 11:54:27;;;;;;;5.93;0.90;;;10.70;99.90;;;;;;5053497;28;20100;-56
2023/12/21 11:56:55;;;;;;;2.47;0.97;;;10.90;99.90;;;;;;5035300;28;20025;-52
2023/12/21 11:59:27;;;;;;;2.47;0.60;;;10.90;99.90;;;;;;5053447;28;20363;-56
2023/12/21 12:01:53;;;;;;;1.83;0.53;;;10.90;99.90;;;;;;5053280;28;20032;-51
2023/12/21 12:04:19;;;;;;;2.27;0.97;;;11.00;99.90;;;;;;5053279;28;20025;-52
2023/12/21 12:06:49;;;;;;;2.53;0.70;;;11.00;99.90;;;;;;5053310;28;20021;-55
2023/12/21 12:09:17;;;;;;;1.10;0.57;;;10.90;99.90;;;;;;5053391;28;20071;-53
2023/12/21 12:11:42;;;;;;;1.73;0.93;;;10.90;99.90;;;;;;5052913;28;20036;-55
2023/12/21 12:14:11;;;;;;;3.53;0.90;;;10.90;99.90;;;;;;5053094;28;20033;-55
2023/12/21 12:16:37;;;;;;;2.10;0.73;;;11.00;99.90;;;;;;5053215;28;20104;-53
2023/12/21 12:19:03;;;;;;;2.50;0.70;;;10.90;99.90;;;;;;5052735;28;20119;-55
2023/12/21 12:21:30;;;;;;;1.63;0.60;;;10.90;99.90;;;;;;5052719;28;20025;-56
2023/12/21 12:23:56;;;;;;;2.00;0.57;;;10.90;99.90;;;;;;5052850;28;20033;-53
2023/12/21 12:26:22;;;;;;;4.33;0.70;;;10.90;99.90;;;;;;5052882;28;20035;-55
2023/12/21 12:28:52;;;;;;;2.63;0.60;;;10.90;99.90;;;;;;5052036;28;20462;-54
2023/12/21 12:31:18;;;;;;;8.30;2.90;;;10.90;99.90;;;;;;5052661;28;20474;-53
2023/12/21 12:33:45;;;;;;;1.93;0.90;;;10.90;99.90;;;;;;5052707;28;20041;-52
2023/12/21 12:36:11;;;;;;;2.10;0.53;;;10.80;99.90;;;;;;5052798;28;20399;-52
2023/12/21 12:38:37;;;;;;;4.17;1.20;;;10.80;99.90;;;;;;5052377;28;20188;-55
2023/12/21 12:41:03;;;;;;;3.13;0.70;;;10.70;99.90;;;;;;5052310;28;20075;-56
2023/12/21 12:43:34;;;;;;;0.87;0.57;;;10.70;99.90;;;;;;5052409;28;20033;-55
2023/12/21 12:46:01;;;;;;;2.93;0.60;;;10.70;99.90;;;;;;5052462;28;20386;-53
2023/12/21 12:48:28;;;;;;;2.60;1.30;;;10.80;99.90;;;;;;5052176;28;20025;-54